Portada
METAR-TAF:

METAR-TAF

Aeroports :

Palembang, Indonèsia

latitud: 02-54S, longitud: 104-42E, altitud: 10 m

Observació

L'informe es va fer fa 8 hores i 3 minuts, a les 09:30 UTC
Vent 10 kt del Est
Temperatura 32°C
Humitat 46%
Pressió 1008 hPa
Visibilitat: 3500 m
Núvols disperses a una alçada de 1000 ft
fum

METAR: WIPP 210930Z 09010KT 3500 FU SCT010 32/19 Q1008

Hora: 00:33 (17:33 UTC)

Pronòstic

L'informe es va fer fa 6 hores i 33 minuts, a les 11:00 UTC
Pronòstic vàlid del 21 a les 12 UTC al 22 a les 12 UTC
Vent 9 kt del Est/Sud-Est
Visibilitat: 4000 m
Núvols disperses a una alçada de 1000 ft
fum
Temporalment
l' 21 a les 21 UTC al 22 a les 01 UTC
Vent 2 kt del Sud/Sud-Oest
Visibilitat: 0800 m
Evolucionant progressivament
l' 21 a les 01 UTC al 21 a les 03 UTC
Visibilitat: 7000 m

TAF: WIPP 211100Z 2112/2212 12009KT 4000 FU SCT010 TEMPO 2121/2201 20002KT 0800 BECMG 2101/2103 7000

Observacions i pronòstics meteorològics de més de 4000 aeroports (METAR i TAF).

Les estacions disponibles són els punts grocs i vermells al mapa.

Posi el ratolí al punt desitjat per veure el nom de l'estació.

Feu clic per veure les observacions i els pronòstics meteorològics.

Per canviar el mapa: feu clic els botons verds amb una creu de color negre per apropar; al botó verd amb un guió per allunyar la imatge; o en les fletxes verdes per a mapes adjacents.


METAR-TAF: